createdAt,value
2022-08-13T00:00:45.186Z,2.42
2022-08-13T00:05:47.769Z,2.45
2022-08-13T00:10:49.951Z,4.57
2022-08-13T00:15:55.703Z,12.23
2022-08-13T00:21:01.119Z,3.75
2022-08-13T00:26:03.622Z,2.28
2022-08-13T00:31:06.937Z,3.80
2022-08-13T00:36:13.778Z,2.53
2022-08-13T00:41:58.525Z,2.05
2022-08-13T00:47:22.273Z,5.72
2022-08-13T00:52:31.904Z,3.42
2022-08-13T00:57:34.925Z,3.35
2022-08-13T01:02:37.908Z,3.03
2022-08-13T01:07:47.467Z,3.60
2022-08-13T01:12:55.826Z,2.88
2022-08-13T01:17:58.997Z,2.92
2022-08-13T01:23:03.803Z,2.60
2022-08-13T01:28:05.952Z,4.13
2022-08-13T01:33:09.722Z,4.30
2022-08-13T01:38:13.598Z,5.45
2022-08-13T01:43:22.445Z,3.63
2022-08-13T01:48:58.500Z,4.05
2022-08-13T01:54:11.453Z,3.00
2022-08-13T01:59:24.605Z,5.53
2022-08-13T02:04:27.027Z,3.55
2022-08-13T02:09:59.989Z,9.05
2022-08-13T02:14:52.003Z,3.72
2022-08-13T02:19:56.712Z,2.70
2022-08-13T02:25:01.393Z,3.33
2022-08-13T02:30:04.211Z,5.38
2022-08-13T02:35:07.606Z,4.05
2022-08-13T02:40:30.147Z,6.53
2022-08-13T02:45:35.730Z,2.78
2022-08-13T02:50:52.041Z,7.30
2022-08-13T02:55:54.372Z,5.20
2022-08-13T03:00:58.887Z,6.10
2022-08-13T03:06:00.965Z,4.30
2022-08-13T03:11:03.732Z,3.85
2022-08-13T03:16:06.980Z,3.28
2022-08-13T03:21:15.603Z,12.13
2022-08-13T03:26:18.628Z,6.00
2022-08-13T03:31:21.211Z,4.15
2022-08-13T03:36:24.069Z,2.70
2022-08-13T03:41:27.783Z,4.07
2022-08-13T03:46:31.058Z,4.22
2022-08-13T03:51:36.009Z,3.50
2022-08-13T03:56:56.262Z,8.23
2022-08-13T04:02:03.445Z,5.00
2022-08-13T04:07:11.159Z,4.57
2022-08-13T04:12:17.835Z,5.25
2022-08-13T04:17:22.291Z,4.15
2022-08-13T04:22:28.522Z,4.75
2022-08-13T04:27:33.761Z,5.63
2022-08-13T04:32:57.497Z,7.00
2022-08-13T04:38:00.332Z,7.35
2022-08-13T04:43:05.015Z,4.95
2022-08-13T04:48:16.931Z,5.43
2022-08-13T04:53:29.714Z,4.35
2022-08-13T04:58:37.629Z,3.15
2022-08-13T05:03:43.639Z,14.82
2022-08-13T05:08:55.483Z,6.78
2022-08-13T05:14:00.153Z,5.18
2022-08-13T05:19:04.915Z,4.03
2022-08-13T05:26:08.613Z,7.25
2022-08-13T05:29:30.836Z,3.42
2022-08-13T05:34:34.188Z,8.63
2022-08-13T05:39:43.251Z,5.00
2022-08-13T05:44:51.165Z,3.28
2022-08-13T05:49:57.842Z,4.03
2022-08-13T05:56:09.447Z,4.78
2022-08-13T06:00:40.982Z,6.95
2022-08-13T06:05:46.345Z,6.13
2022-08-13T06:10:49.496Z,5.22
2022-08-13T06:16:05.006Z,3.60
2022-08-13T06:21:49.314Z,9.40
2022-08-13T06:26:39.870Z,6.35
2022-08-13T06:31:47.087Z,7.50
2022-08-13T06:36:49.533Z,5.22
2022-08-13T06:42:02.128Z,3.95
2022-08-13T06:47:06.092Z,6.57
2022-08-13T06:52:08.248Z,3.22
2022-08-13T06:57:21.095Z,7.18
2022-08-13T07:02:25.599Z,8.27
2022-08-13T07:07:28.718Z,5.10
2022-08-13T07:12:34.862Z,6.00
2022-08-13T07:17:36.843Z,4.85
2022-08-13T07:24:36.769Z,5.15
2022-08-13T07:28:10.293Z,9.93
2022-08-13T07:33:16.820Z,15.93
2022-08-13T07:38:19.831Z,3.67
2022-08-13T07:43:24.857Z,7.82
2022-08-13T07:48:33.012Z,4.13
2022-08-13T07:53:57.462Z,5.90
2022-08-13T07:59:05.195Z,5.45
2022-08-13T08:04:07.792Z,7.10
2022-08-13T08:09:17.434Z,9.55
2022-08-13T08:14:30.533Z,6.78
2022-08-13T08:20:14.477Z,6.53
2022-08-13T08:24:55.342Z,5.35
2022-08-13T08:30:13.010Z,5.25
2022-08-13T08:35:17.746Z,8.00
2022-08-13T08:40:58.387Z,11.80
2022-08-13T08:46:12.383Z,7.93
2022-08-13T08:51:21.720Z,6.43
2022-08-13T08:56:23.944Z,9.57
2022-08-13T09:01:29.231Z,13.18
2022-08-13T09:06:56.784Z,13.27
2022-08-13T09:12:00.337Z,10.07
2022-08-13T09:17:10.413Z,8.23
2022-08-13T09:22:21.598Z,14.00
2022-08-13T09:27:27.610Z,7.40
2022-08-13T09:32:50.505Z,10.07
2022-08-13T09:37:57.299Z,14.43
2022-08-13T09:43:10.705Z,10.55
2022-08-13T09:48:36.741Z,15.05
2022-08-13T09:53:41.430Z,11.60
2022-08-13T09:58:43.316Z,9.27
2022-08-13T10:03:53.779Z,12.27
2022-08-13T10:09:02.517Z,11.07
2022-08-13T10:14:04.662Z,8.90
2022-08-13T10:19:09.811Z,17.20
2022-08-13T10:24:14.184Z,17.75
2022-08-13T10:30:06.390Z,11.15
2022-08-13T10:34:41.752Z,10.88
2022-08-13T10:39:59.744Z,10.57
2022-08-13T10:45:01.778Z,10.13
2022-08-13T10:50:04.780Z,9.05
2022-08-13T10:55:09.422Z,10.75
2022-08-13T11:00:23.576Z,16.02
2022-08-13T11:05:27.700Z,9.88
2022-08-13T11:10:32.706Z,12.90
2022-08-13T11:15:46.795Z,10.43
2022-08-13T11:22:19.873Z,16.35
2022-08-13T11:31:59.315Z,8.38
2022-08-13T11:37:02.354Z,9.93
2022-08-13T11:42:04.540Z,10.60
2022-08-13T11:47:18.516Z,13.20
2022-08-13T11:52:28.446Z,8.60
2022-08-13T11:57:45.749Z,9.35
2022-08-13T12:02:55.169Z,8.95
2022-08-13T12:08:00.908Z,9.57
2022-08-13T12:13:04.053Z,9.18
2022-08-13T12:18:07.996Z,9.32
2022-08-13T12:23:21.354Z,9.32
2022-08-13T12:28:30.430Z,11.18
2022-08-13T12:33:40.392Z,10.40
2022-08-13T12:38:43.638Z,17.52
2022-08-13T12:45:01.189Z,13.82
2022-08-13T12:49:23.145Z,12.73
2022-08-13T12:54:40.072Z,14.35
2022-08-13T13:00:02.842Z,17.65
2022-08-13T13:05:15.682Z,15.98
2022-08-13T13:10:19.147Z,13.52
2022-08-13T13:15:42.177Z,13.75
2022-08-13T13:20:47.067Z,11.50
2022-08-13T13:25:53.388Z,18.08
2022-08-13T13:31:02.744Z,15.82
2022-08-13T13:36:20.046Z,14.75
2022-08-13T13:41:26.063Z,15.25
2022-08-13T13:46:49.877Z,13.63
2022-08-13T13:51:52.868Z,14.10
2022-08-13T13:56:55.511Z,13.10
2022-08-13T14:01:57.777Z,16.95
2022-08-13T14:07:26.734Z,14.10
2022-08-13T14:13:02.878Z,14.38
2022-08-13T14:18:23.430Z,13.60
2022-08-13T14:23:18.748Z,12.40
2022-08-13T14:28:24.649Z,18.33
2022-08-13T14:33:53.083Z,9.98
2022-08-13T14:38:51.053Z,11.68
2022-08-13T14:44:01.570Z,8.88
2022-08-13T14:49:06.115Z,11.18
2022-08-13T14:54:09.286Z,11.07
2022-08-13T14:59:11.507Z,11.35
2022-08-13T15:04:14.685Z,8.27
2022-08-13T15:09:17.478Z,11.05
2022-08-13T15:14:23.933Z,12.70
2022-08-13T15:19:28.132Z,12.88
2022-08-13T15:24:37.684Z,9.88
2022-08-13T15:29:48.849Z,12.00
2022-08-13T15:34:57.249Z,10.48
2022-08-13T15:40:00.194Z,8.98
2022-08-13T15:45:09.373Z,8.57
2022-08-13T15:50:12.346Z,13.75
2022-08-13T15:55:16.807Z,7.07
2022-08-13T16:00:24.182Z,9.10
2022-08-13T16:05:39.812Z,10.50
2022-08-13T16:10:58.455Z,9.38
2022-08-13T16:16:05.140Z,8.07
2022-08-13T16:21:13.129Z,8.57
2022-08-13T16:26:20.942Z,12.45
2022-08-13T16:31:35.038Z,13.02
2022-08-13T16:36:46.677Z,7.65
2022-08-13T16:41:54.517Z,7.93
2022-08-13T16:46:59.537Z,7.50
2022-08-13T16:52:02.547Z,7.15
2022-08-13T16:57:08.685Z,7.10
2022-08-13T17:02:11.881Z,8.52
2022-08-13T17:07:32.941Z,7.80
2022-08-13T17:12:35.682Z,6.22
2022-08-13T17:17:37.780Z,5.78
2022-08-13T17:22:41.300Z,10.10
2022-08-13T17:27:52.306Z,6.78
2022-08-13T17:32:57.444Z,8.13
2022-08-13T17:38:09.378Z,7.55
2022-08-13T17:44:01.125Z,6.97
2022-08-13T17:48:38.527Z,10.05
2022-08-13T17:53:58.582Z,6.72
2022-08-13T17:59:09.378Z,8.00
2022-08-13T18:04:17.755Z,8.20
2022-08-13T18:09:45.732Z,7.22
2022-08-13T18:14:49.890Z,7.32
2022-08-13T18:19:53.234Z,7.50
2022-08-13T18:25:00.661Z,12.35
2022-08-13T18:30:09.236Z,7.13
2022-08-13T18:35:23.708Z,8.57
2022-08-13T18:40:28.801Z,8.50
2022-08-13T18:45:58.422Z,9.25
2022-08-13T18:50:54.462Z,8.70
2022-08-13T18:55:56.681Z,9.35
2022-08-13T19:01:06.165Z,7.45
2022-08-13T19:06:09.819Z,12.27
2022-08-13T19:11:12.260Z,8.05
2022-08-13T19:16:18.114Z,13.25
2022-08-13T19:21:51.953Z,12.07
2022-08-13T19:26:43.066Z,10.52
2022-08-13T19:31:46.529Z,11.93
2022-08-13T19:36:52.929Z,13.90
2022-08-13T19:41:55.032Z,11.05
2022-08-13T19:46:58.358Z,14.35
2022-08-13T19:52:00.619Z,13.07
2022-08-13T19:57:03.905Z,12.00
2022-08-13T20:02:07.261Z,10.13
2022-08-13T20:07:10.040Z,14.85
2022-08-13T20:12:14.387Z,10.25
2022-08-13T20:17:20.654Z,12.60
2022-08-13T20:22:26.481Z,10.20
2022-08-13T20:27:48.950Z,9.40
2022-08-13T20:32:52.484Z,10.13
2022-08-13T20:37:58.543Z,11.30
2022-08-13T20:43:06.798Z,8.45
2022-08-13T20:48:30.307Z,9.23
2022-08-13T20:53:41.041Z,9.43
2022-08-13T21:00:43.654Z,10.57
2022-08-13T21:04:13.886Z,8.70
2022-08-13T21:09:16.017Z,12.88
2022-08-13T21:14:30.608Z,12.95
2022-08-13T21:19:37.322Z,10.43
2022-08-13T21:24:42.011Z,12.95
2022-08-13T21:29:44.215Z,10.10
2022-08-13T21:34:47.535Z,11.55
2022-08-13T21:39:52.240Z,10.35
2022-08-13T21:44:54.195Z,11.95
2022-08-13T21:49:56.111Z,11.45
2022-08-13T21:54:59.698Z,10.57
2022-08-13T22:00:02.522Z,9.93
2022-08-13T22:05:08.234Z,10.52
2022-08-13T22:10:12.850Z,10.25
2022-08-13T22:15:15.070Z,13.95
2022-08-13T22:20:18.286Z,12.18
2022-08-13T22:25:20.363Z,11.13
2022-08-13T22:30:42.111Z,10.95
2022-08-13T22:35:55.648Z,16.45
2022-08-13T22:40:59.429Z,13.63
2022-08-13T22:46:01.901Z,11.20
2022-08-13T22:51:05.440Z,13.40
2022-08-13T22:56:07.693Z,12.63
2022-08-13T23:01:10.809Z,11.60
2022-08-13T23:06:35.224Z,8.93
2022-08-13T23:11:36.646Z,11.60
2022-08-13T23:16:38.719Z,16.88
2022-08-13T23:21:40.978Z,10.30
2022-08-13T23:26:43.061Z,11.43
2022-08-13T23:31:45.301Z,11.40
2022-08-13T23:36:55.140Z,14.20
2022-08-13T23:41:57.356Z,14.90
2022-08-13T23:46:59.293Z,13.25
2022-08-13T23:52:01.436Z,11.90
2022-08-13T23:57:03.834Z,12.30
